createdAt,value
2017-09-29T00:00:58.649Z,101960.27
2017-09-29T00:03:27.305Z,101954.25
2017-09-29T00:05:55.949Z,101957.75
2017-09-29T00:08:24.618Z,101956.08
2017-09-29T00:10:53.299Z,101954.45
2017-09-29T00:13:21.976Z,101951.94
2017-09-29T00:15:50.590Z,101953.27
2017-09-29T00:18:19.239Z,101954.25
2017-09-29T00:20:47.915Z,101949.23
2017-09-29T00:23:16.699Z,101944.97
2017-09-29T00:25:45.302Z,101944.55
2017-09-29T00:28:13.973Z,101943.30
2017-09-29T00:30:42.635Z,101935.95
2017-09-29T00:33:11.308Z,101941.55
2017-09-29T00:35:40.668Z,101939.41
2017-09-29T00:38:09.353Z,101935.12
2017-09-29T00:40:37.818Z,101934.63
2017-09-29T00:43:06.447Z,101933.79
2017-09-29T00:45:34.789Z,101934.17
2017-09-29T00:48:03.393Z,101938.05
2017-09-29T00:50:32.082Z,101933.22
2017-09-29T00:53:00.698Z,101929.72
2017-09-29T00:55:29.386Z,101934.02
2017-09-29T00:57:57.852Z,101932.73
2017-09-29T01:00:26.239Z,101927.09
2017-09-29T01:02:55.178Z,101932.27
2017-09-29T01:05:23.809Z,101933.48
2017-09-29T01:07:52.497Z,101929.19
2017-09-29T01:10:21.130Z,101926.98
2017-09-29T01:12:49.745Z,101933.00
2017-09-29T01:15:18.137Z,101931.66
2017-09-29T01:17:46.421Z,101930.83
2017-09-29T01:20:14.848Z,101931.66
2017-09-29T01:22:43.470Z,101929.08
2017-09-29T01:25:12.119Z,101926.88
2017-09-29T01:27:40.805Z,101934.22
2017-09-29T01:30:09.463Z,101931.20
2017-09-29T01:32:38.179Z,101931.70
2017-09-29T01:35:06.811Z,101925.20
2017-09-29T01:37:35.519Z,101933.83
2017-09-29T01:40:04.174Z,101934.67
2017-09-29T01:42:32.384Z,101942.02
2017-09-29T01:45:00.550Z,101936.49
2017-09-29T01:47:29.086Z,101931.73
2017-09-29T01:49:57.721Z,101932.23
2017-09-29T01:52:26.105Z,101936.15
2017-09-29T01:54:54.441Z,101931.44
2017-09-29T01:57:22.823Z,101930.14
2017-09-29T01:59:51.179Z,101923.22
2017-09-29T02:02:19.553Z,101927.14
2017-09-29T02:04:47.856Z,101927.63
2017-09-29T02:07:16.182Z,101919.08
2017-09-29T02:09:44.540Z,101920.44
2017-09-29T02:12:12.842Z,101913.03
2017-09-29T02:14:41.578Z,101914.81
2017-09-29T02:17:09.903Z,101912.57
2017-09-29T02:19:38.241Z,101918.54
2017-09-29T02:22:06.596Z,101914.73
2017-09-29T02:24:35.334Z,101913.86
2017-09-29T02:27:03.712Z,101911.23
2017-09-29T02:29:32.117Z,101908.58
2017-09-29T02:32:00.427Z,101913.30
2017-09-29T02:34:28.782Z,101910.25
2017-09-29T02:36:57.161Z,101912.76
2017-09-29T02:39:25.522Z,101906.33
2017-09-29T02:41:53.927Z,101906.30
2017-09-29T02:44:22.590Z,101906.71
2017-09-29T02:46:50.905Z,101904.55
2017-09-29T02:49:19.266Z,101902.38
2017-09-29T02:51:47.613Z,101900.63
2017-09-29T02:54:15.974Z,101899.34
2017-09-29T02:56:55.574Z,101895.04
2017-09-29T02:59:28.515Z,101901.47
2017-09-29T03:02:15.062Z,101895.88
2017-09-29T03:04:48.710Z,101895.88
2017-09-29T03:07:17.339Z,101892.87
2017-09-29T03:09:46.029Z,101903.63
2017-09-29T03:12:14.690Z,101895.45
2017-09-29T03:14:43.344Z,101895.42
2017-09-29T03:17:11.970Z,101894.58
2017-09-29T03:19:40.625Z,101898.00
2017-09-29T03:22:09.238Z,101899.71
2017-09-29T03:24:37.925Z,101898.00
2017-09-29T03:27:06.529Z,101890.66
2017-09-29T03:29:37.663Z,101891.53
2017-09-29T03:32:06.305Z,101894.12
2017-09-29T03:34:34.957Z,101890.23
2017-09-29T03:37:03.646Z,101893.25
2017-09-29T03:39:32.259Z,101889.38
2017-09-29T03:42:00.932Z,101882.52
2017-09-29T03:44:29.605Z,101887.70
2017-09-29T03:46:58.215Z,101884.73
2017-09-29T03:49:26.873Z,101881.73
2017-09-29T03:51:59.597Z,101882.60
2017-09-29T03:54:31.371Z,101880.51
2017-09-29T03:57:02.706Z,101875.38
2017-09-29T03:59:31.367Z,101875.38
2017-09-29T04:02:00.008Z,101868.07
2017-09-29T04:04:28.621Z,101861.27
2017-09-29T04:06:57.270Z,101863.51
2017-09-29T04:09:25.880Z,101864.84
2017-09-29T04:11:54.594Z,101857.13
2017-09-29T04:14:23.208Z,101869.17
2017-09-29T04:17:07.520Z,101863.17
2017-09-29T04:19:46.537Z,101861.00
2017-09-29T04:22:25.034Z,101859.33
2017-09-29T04:25:05.749Z,101861.13
2017-09-29T04:27:44.737Z,101859.86
2017-09-29T04:30:20.120Z,101858.58
2017-09-29T04:32:56.559Z,101858.61
2017-09-29T04:35:32.421Z,101860.78
2017-09-29T04:38:08.220Z,101859.48
2017-09-29T04:40:46.360Z,101864.23
2017-09-29T04:43:28.379Z,101864.73
2017-09-29T04:46:10.004Z,101862.61
2017-09-29T04:48:54.133Z,101863.02
2017-09-29T04:51:35.174Z,101866.48
2017-09-29T04:57:06.710Z,101863.48
2017-09-29T04:59:51.297Z,101862.19
2017-09-29T05:02:33.913Z,101860.09
2017-09-29T05:05:19.201Z,101864.42
2017-09-29T05:10:46.635Z,101872.64
2017-09-29T05:13:26.624Z,101870.52
2017-09-29T05:16:02.131Z,101865.38
2017-09-29T05:18:36.666Z,101866.22
2017-09-29T05:21:04.861Z,101865.80
2017-09-29T05:23:33.640Z,101869.26
2017-09-29T05:26:11.518Z,101869.30
2017-09-29T05:28:51.350Z,101869.72
2017-09-29T05:31:30.640Z,101879.64
2017-09-29T05:34:09.870Z,101878.80
2017-09-29T05:36:50.476Z,101887.81
2017-09-29T05:39:27.662Z,101885.23
2017-09-29T05:42:06.514Z,101879.68
2017-09-29T05:44:44.357Z,101878.39
2017-09-29T05:47:21.227Z,101874.05
2017-09-29T05:50:00.185Z,101877.13
2017-09-29T05:52:40.173Z,101872.80
2017-09-29T05:55:16.174Z,101877.55
2017-09-29T05:57:54.121Z,101879.27
2017-09-29T06:00:33.125Z,101874.13
2017-09-29T06:03:13.316Z,101878.80
2017-09-29T06:05:55.168Z,101874.97
2017-09-29T06:08:29.208Z,101877.13
2017-09-29T06:11:03.786Z,101883.94
2017-09-29T06:13:41.113Z,101878.34
2017-09-29T06:16:15.322Z,101876.98
2017-09-29T06:18:56.106Z,101877.84
2017-09-29T06:21:33.008Z,101882.98
2017-09-29T06:24:12.156Z,101883.36
2017-09-29T06:26:49.968Z,101880.28
2017-09-29T06:29:29.095Z,101873.74
2017-09-29T06:32:05.827Z,101878.84
2017-09-29T06:34:47.385Z,101880.52
2017-09-29T06:37:27.380Z,101873.97
2017-09-29T06:40:07.165Z,101876.52
2017-09-29T06:42:44.823Z,101872.59
2017-09-29T06:45:23.345Z,101872.52
2017-09-29T06:48:01.097Z,101872.45
2017-09-29T06:50:43.483Z,101862.90
2017-09-29T06:53:20.555Z,101872.71
2017-09-29T06:55:56.512Z,101873.93
2017-09-29T06:58:37.529Z,101869.55
2017-09-29T07:01:22.233Z,101880.23
2017-09-29T07:04:02.975Z,101874.11
2017-09-29T07:06:32.346Z,101879.20
2017-09-29T07:09:01.287Z,101884.68
2017-09-29T07:11:29.981Z,101878.56
2017-09-29T07:13:58.608Z,101877.64
2017-09-29T07:16:27.250Z,101879.27
2017-09-29T07:19:07.281Z,101879.58
2017-09-29T07:21:49.164Z,101879.95
2017-09-29T07:24:32.592Z,101878.96
2017-09-29T07:27:14.120Z,101870.63
2017-09-29T07:29:46.472Z,101876.51
2017-09-29T07:32:18.178Z,101869.55
2017-09-29T07:34:46.793Z,101882.41
2017-09-29T07:37:15.481Z,101878.83
2017-09-29T07:39:44.134Z,101881.74
2017-09-29T07:42:12.783Z,101884.17
2017-09-29T07:44:41.470Z,101881.89
2017-09-29T07:47:10.169Z,101871.45
2017-09-29T07:49:38.784Z,101883.48
2017-09-29T07:52:07.455Z,101885.52
2017-09-29T07:54:39.851Z,101882.86
2017-09-29T07:57:08.554Z,101879.77
2017-09-29T07:59:37.201Z,101882.58
2017-09-29T08:02:05.872Z,101881.51
2017-09-29T08:04:34.480Z,101884.89
2017-09-29T08:07:03.093Z,101886.09
2017-09-29T08:09:31.772Z,101885.72
2017-09-29T08:12:00.389Z,101884.42
2017-09-29T08:14:30.220Z,101885.31
2017-09-29T08:16:58.846Z,101887.44
2017-09-29T08:19:27.548Z,101884.42
2017-09-29T08:21:56.168Z,101885.68
2017-09-29T08:24:24.859Z,101890.81
2017-09-29T08:26:53.496Z,101884.30
2017-09-29T08:29:22.154Z,101892.41
2017-09-29T08:31:50.814Z,101887.53
2017-09-29T08:34:19.474Z,101885.73
2017-09-29T08:36:48.084Z,101875.66
2017-09-29T08:39:16.562Z,101879.38
2017-09-29T08:41:45.252Z,101877.04
2017-09-29T08:44:13.866Z,101876.45
2017-09-29T08:46:42.541Z,101874.11
2017-09-29T08:49:11.162Z,101876.08
2017-09-29T08:51:39.770Z,101867.27
2017-09-29T08:54:08.428Z,101866.58
2017-09-29T08:56:37.054Z,101857.81
2017-09-29T08:59:05.729Z,101858.52
2017-09-29T09:01:34.342Z,101858.38
2017-09-29T09:04:02.995Z,101856.92
2017-09-29T09:06:31.662Z,101852.86
2017-09-29T09:09:00.274Z,101855.28
2017-09-29T09:11:28.896Z,101846.49
2017-09-29T09:13:57.549Z,101851.42
2017-09-29T09:16:26.155Z,101842.59
2017-09-29T09:18:54.818Z,101840.70
2017-09-29T09:21:23.493Z,101836.59
2017-09-29T09:23:52.138Z,101838.55
2017-09-29T09:26:20.810Z,101834.98
2017-09-29T09:28:49.436Z,101836.09
2017-09-29T09:31:18.112Z,101830.32
2017-09-29T09:33:46.787Z,101829.22
2017-09-29T09:36:15.454Z,101827.28
2017-09-29T09:38:44.053Z,101828.73
2017-09-29T09:41:12.720Z,101822.47
2017-09-29T09:43:41.339Z,101830.49
2017-09-29T09:46:09.974Z,101820.72
2017-09-29T09:48:38.525Z,101816.64
2017-09-29T09:51:07.136Z,101814.73
2017-09-29T09:53:35.800Z,101814.56
2017-09-29T09:56:04.421Z,101811.30
2017-09-29T09:58:35.434Z,101812.38
2017-09-29T10:01:04.129Z,101814.05
2017-09-29T10:03:32.767Z,101815.63
2017-09-29T10:06:01.374Z,101810.33
2017-09-29T10:08:32.968Z,101813.95
2017-09-29T10:11:01.588Z,101816.78
2017-09-29T10:13:30.261Z,101814.45
2017-09-29T10:15:58.878Z,101804.30
2017-09-29T10:18:27.497Z,101809.03
2017-09-29T10:20:56.150Z,101809.72
2017-09-29T10:23:24.798Z,101806.56
2017-09-29T10:25:53.418Z,101808.55
2017-09-29T10:28:22.078Z,101804.80
2017-09-29T10:30:50.733Z,101802.98
2017-09-29T10:33:19.398Z,101794.12
2017-09-29T10:35:48.013Z,101797.55
2017-09-29T10:38:16.619Z,101800.79
2017-09-29T10:40:45.269Z,101791.14
2017-09-29T10:43:14.098Z,101791.14
2017-09-29T10:45:42.746Z,101787.92
2017-09-29T10:48:11.350Z,101787.46
2017-09-29T10:50:40.001Z,101785.19
2017-09-29T10:53:08.627Z,101778.23
2017-09-29T10:55:37.280Z,101775.86
2017-09-29T10:58:05.775Z,101776.64
2017-09-29T11:00:34.441Z,101771.30
2017-09-29T11:03:03.058Z,101773.38
2017-09-29T11:05:31.679Z,101778.02
2017-09-29T11:08:00.349Z,101773.50
2017-09-29T11:10:28.958Z,101767.70
2017-09-29T11:12:57.637Z,101761.93
2017-09-29T11:15:26.281Z,101761.73
2017-09-29T11:17:54.913Z,101753.02
2017-09-29T11:20:23.597Z,101755.47
2017-09-29T11:22:52.215Z,101750.59
2017-09-29T11:25:20.869Z,101751.67
2017-09-29T11:27:49.550Z,101747.63
2017-09-29T11:30:18.222Z,101740.11
2017-09-29T11:32:46.918Z,101738.28
2017-09-29T11:35:15.538Z,101736.56
2017-09-29T11:37:44.161Z,101730.22
2017-09-29T11:40:12.817Z,101732.20
2017-09-29T11:42:41.425Z,101733.35
2017-09-29T11:45:10.090Z,101730.70
2017-09-29T11:47:38.704Z,101725.70
2017-09-29T11:50:07.354Z,101719.06
2017-09-29T11:52:36.029Z,101721.92
2017-09-29T11:55:04.638Z,101715.69
2017-09-29T11:57:33.244Z,101709.45
2017-09-29T12:00:02.118Z,101716.20
2017-09-29T12:02:30.743Z,101708.30
2017-09-29T12:04:59.398Z,101713.30
2017-09-29T12:07:28.019Z,101712.63
2017-09-29T12:09:56.685Z,101712.98
2017-09-29T12:12:25.336Z,101718.08
2017-09-29T12:14:53.989Z,101712.72
2017-09-29T12:17:22.618Z,101711.17
2017-09-29T12:19:51.235Z,101712.71
2017-09-29T12:22:19.899Z,101706.94
2017-09-29T12:24:48.531Z,101704.97
2017-09-29T12:27:17.209Z,101701.84
2017-09-29T12:29:45.855Z,101693.88
2017-09-29T12:32:14.217Z,101702.77
2017-09-29T12:34:42.876Z,101694.34
2017-09-29T12:37:11.490Z,101691.02
2017-09-29T12:39:40.183Z,101692.55
2017-09-29T12:42:08.886Z,101684.80
2017-09-29T12:44:37.510Z,101681.08
2017-09-29T12:47:06.201Z,101690.34
2017-09-29T12:49:34.839Z,101676.70
2017-09-29T12:52:03.524Z,101677.83
2017-09-29T12:54:32.214Z,101679.36
2017-09-29T12:57:00.877Z,101680.70
2017-09-29T12:59:29.502Z,101678.28
2017-09-29T13:01:58.153Z,101673.03
2017-09-29T13:04:26.785Z,101666.47
2017-09-29T13:06:55.501Z,101670.88
2017-09-29T13:09:23.998Z,101659.30
2017-09-29T13:11:52.652Z,101660.37
2017-09-29T13:14:21.283Z,101661.88
2017-09-29T13:16:49.948Z,101652.00
2017-09-29T13:19:18.613Z,101650.91
2017-09-29T13:21:47.215Z,101647.66
2017-09-29T13:24:15.882Z,101654.30
2017-09-29T13:26:44.554Z,101647.03
2017-09-29T13:29:13.166Z,101642.83
2017-09-29T13:31:41.830Z,101648.77
2017-09-29T13:34:10.446Z,101645.41
2017-09-29T13:36:39.060Z,101652.92
2017-09-29T13:39:07.714Z,101652.45
2017-09-29T13:41:36.340Z,101651.34
2017-09-29T13:44:05.082Z,101652.89
2017-09-29T13:46:33.698Z,101654.39
2017-09-29T13:49:02.304Z,101646.74
2017-09-29T13:51:30.988Z,101652.97
2017-09-29T13:53:59.661Z,101652.80
2017-09-29T13:56:28.337Z,101651.39
2017-09-29T13:58:57.024Z,101653.33
2017-09-29T14:01:25.628Z,101653.27
2017-09-29T14:03:54.281Z,101646.14
2017-09-29T14:06:22.903Z,101648.05
2017-09-29T14:08:51.557Z,101643.01
2017-09-29T14:11:20.210Z,101640.65
2017-09-29T14:13:48.821Z,101638.76
2017-09-29T14:16:17.431Z,101635.56
2017-09-29T14:18:46.261Z,101642.86
2017-09-29T14:21:14.881Z,101641.47
2017-09-29T14:23:43.599Z,101643.19
2017-09-29T14:26:12.216Z,101642.95
2017-09-29T14:28:40.831Z,101639.83
2017-09-29T14:31:09.486Z,101638.11
2017-09-29T14:33:38.124Z,101641.42
2017-09-29T14:36:06.778Z,101638.47
2017-09-29T14:38:36.410Z,101639.17
2017-09-29T14:41:05.091Z,101645.75
2017-09-29T14:43:33.753Z,101644.69
2017-09-29T14:46:02.424Z,101632.78
2017-09-29T14:48:34.865Z,101637.34
2017-09-29T14:51:03.521Z,101633.37
2017-09-29T14:53:32.133Z,101634.44
2017-09-29T14:56:00.763Z,101632.89
2017-09-29T14:58:29.421Z,101630.05
2017-09-29T15:00:58.043Z,101633.61
2017-09-29T15:03:26.697Z,101629.40
2017-09-29T15:05:55.381Z,101633.19
2017-09-29T15:08:24.008Z,101630.59
2017-09-29T15:10:52.677Z,101632.12
2017-09-29T15:13:21.418Z,101631.00
2017-09-29T15:15:50.034Z,101630.89
2017-09-29T15:18:18.775Z,101634.44
2017-09-29T15:20:55.449Z,101631.77
2017-09-29T15:23:24.101Z,101630.59
2017-09-29T15:25:52.762Z,101622.16
2017-09-29T15:28:21.420Z,101628.92
2017-09-29T15:30:50.029Z,101630.28
2017-09-29T15:33:18.872Z,101632.12
2017-09-29T15:35:47.569Z,101632.34
2017-09-29T15:38:16.180Z,101629.38
2017-09-29T15:40:44.897Z,101626.67
2017-09-29T15:43:13.514Z,101631.58
2017-09-29T15:45:42.557Z,101630.87
2017-09-29T15:48:11.238Z,101634.14
2017-09-29T15:50:39.856Z,101630.41
2017-09-29T15:53:08.508Z,101626.25
2017-09-29T15:55:37.180Z,101635.01
2017-09-29T15:58:05.801Z,101636.03
2017-09-29T16:00:34.463Z,101630.47
2017-09-29T16:03:02.956Z,101626.39
2017-09-29T16:05:31.604Z,101625.84
2017-09-29T16:08:00.224Z,101633.41
2017-09-29T16:10:28.899Z,101628.28
2017-09-29T16:12:57.508Z,101632.41
2017-09-29T16:15:26.205Z,101639.39
2017-09-29T16:17:54.840Z,101629.20
2017-09-29T16:20:23.449Z,101634.99
2017-09-29T16:22:52.121Z,101630.09
2017-09-29T16:25:20.742Z,101621.20
2017-09-29T16:27:49.394Z,101626.68
2017-09-29T16:30:18.089Z,101626.79
2017-09-29T16:32:46.714Z,101624.84
2017-09-29T16:35:17.078Z,101623.41
2017-09-29T16:37:45.761Z,101627.55
2017-09-29T16:40:14.374Z,101622.56
2017-09-29T16:42:43.053Z,101627.22
2017-09-29T16:45:11.689Z,101628.27
2017-09-29T16:47:40.331Z,101630.28
2017-09-29T16:50:08.982Z,101626.23
2017-09-29T16:52:37.637Z,101628.59
2017-09-29T16:55:06.253Z,101628.41
2017-09-29T16:57:34.905Z,101631.28
2017-09-29T17:00:03.542Z,101635.88
2017-09-29T17:02:32.221Z,101633.09
2017-09-29T17:05:00.839Z,101629.92
2017-09-29T17:07:29.454Z,101633.62
2017-09-29T17:09:58.114Z,101631.23
2017-09-29T17:12:26.792Z,101631.14
2017-09-29T17:14:55.402Z,101633.92
2017-09-29T17:17:24.061Z,101633.24
2017-09-29T17:19:52.668Z,101642.98
2017-09-29T17:22:21.333Z,101633.77
2017-09-29T17:24:49.997Z,101632.29
2017-09-29T17:27:18.661Z,101625.17
2017-09-29T17:29:47.276Z,101619.84
2017-09-29T17:32:15.936Z,101618.27
2017-09-29T17:34:44.570Z,101613.75
2017-09-29T17:37:13.239Z,101616.56
2017-09-29T17:39:41.862Z,101615.02
2017-09-29T17:42:10.478Z,101620.84
2017-09-29T17:44:39.138Z,101625.42
2017-09-29T17:47:07.762Z,101619.10
2017-09-29T17:49:44.987Z,101618.53
2017-09-29T17:52:13.589Z,101616.50
2017-09-29T17:54:45.672Z,101618.47
2017-09-29T17:57:14.296Z,101614.80
2017-09-29T17:59:42.957Z,101613.19
2017-09-29T18:02:11.461Z,101613.86
2017-09-29T18:04:40.116Z,101606.70
2017-09-29T18:07:08.739Z,101605.09
2017-09-29T18:09:37.389Z,101601.77
2017-09-29T18:12:06.001Z,101598.95
2017-09-29T18:14:34.666Z,101599.00
2017-09-29T18:17:03.652Z,101593.91
2017-09-29T18:19:35.932Z,101582.76
2017-09-29T18:22:17.671Z,101581.27
2017-09-29T18:24:54.157Z,101578.58
2017-09-29T18:27:27.759Z,101579.98
2017-09-29T18:30:06.153Z,101576.60
2017-09-29T18:32:46.298Z,101580.28
2017-09-29T18:35:25.585Z,101582.25
2017-09-29T18:38:05.385Z,101584.48
2017-09-29T18:40:44.659Z,101585.91
2017-09-29T18:43:23.037Z,101578.27
2017-09-29T18:46:01.129Z,101574.10
2017-09-29T18:48:32.800Z,101580.64
2017-09-29T18:51:11.385Z,101575.09
2017-09-29T18:53:48.454Z,101568.34
2017-09-29T18:56:31.477Z,101579.87
2017-09-29T18:59:24.204Z,101574.77
2017-09-29T19:04:40.458Z,101580.69
2017-09-29T19:07:19.305Z,101580.84
2017-09-29T19:10:02.517Z,101579.13
2017-09-29T19:12:46.237Z,101577.52
2017-09-29T19:15:23.193Z,101574.30
2017-09-29T19:17:58.392Z,101564.12
2017-09-29T19:20:35.493Z,101573.27
2017-09-29T19:23:13.191Z,101569.56
2017-09-29T19:25:49.977Z,101572.20
2017-09-29T19:28:23.444Z,101565.41
2017-09-29T19:30:56.896Z,101565.55
2017-09-29T19:33:34.260Z,101557.41
2017-09-29T19:36:13.085Z,101549.45
2017-09-29T19:38:51.765Z,101549.98
2017-09-29T19:41:25.430Z,101541.77
2017-09-29T19:44:00.303Z,101539.33
2017-09-29T19:46:35.976Z,101536.88
2017-09-29T19:49:11.593Z,101538.24
2017-09-29T19:51:43.688Z,101533.10
2017-09-29T19:54:20.593Z,101533.25
2017-09-29T19:56:57.765Z,101528.58
2017-09-29T19:59:38.355Z,101533.55
2017-09-29T20:02:21.082Z,101537.44
2017-09-29T20:04:56.633Z,101531.52
2017-09-29T20:07:32.824Z,101534.11
2017-09-29T20:10:07.187Z,101531.27
2017-09-29T20:12:45.356Z,101527.84
2017-09-29T20:15:21.223Z,101530.06
2017-09-29T20:17:51.029Z,101527.34
2017-09-29T20:20:19.681Z,101526.52
2017-09-29T20:22:48.452Z,101519.36
2017-09-29T20:25:18.055Z,101522.88
2017-09-29T20:27:46.785Z,101524.70
2017-09-29T20:30:15.390Z,101514.83
2017-09-29T20:32:55.760Z,101524.48
2017-09-29T20:35:34.917Z,101525.78
2017-09-29T20:38:05.830Z,101530.19
2017-09-29T20:40:34.497Z,101531.55
2017-09-29T20:43:03.201Z,101532.94
2017-09-29T20:45:33.142Z,101531.28
2017-09-29T20:48:02.534Z,101526.65
2017-09-29T20:50:36.491Z,101528.41
2017-09-29T20:53:05.254Z,101531.30
2017-09-29T20:55:44.912Z,101532.19
2017-09-29T20:58:27.034Z,101527.20
2017-09-29T21:01:07.024Z,101530.72
2017-09-29T21:03:46.442Z,101527.75
2017-09-29T21:06:23.721Z,101527.06
2017-09-29T21:09:03.291Z,101520.73
2017-09-29T21:11:47.136Z,101521.63
2017-09-29T21:14:29.730Z,101518.39
2017-09-29T21:17:09.128Z,101525.34
2017-09-29T21:19:46.820Z,101526.77
2017-09-29T21:22:29.177Z,101523.08
2017-09-29T21:25:08.323Z,101518.46
2017-09-29T21:27:37.517Z,101511.66
2017-09-29T21:30:06.189Z,101509.95
2017-09-29T21:32:34.847Z,101514.86
2017-09-29T21:35:04.914Z,101512.41
2017-09-29T21:37:33.578Z,101507.69
2017-09-29T21:40:02.213Z,101502.64
2017-09-29T21:42:35.154Z,101505.77
2017-09-29T21:45:05.479Z,101500.30
2017-09-29T21:47:34.364Z,101496.56
2017-09-29T21:50:02.983Z,101497.44
2017-09-29T21:52:31.603Z,101500.08
2017-09-29T21:55:00.253Z,101497.63
2017-09-29T21:57:28.885Z,101494.77
2017-09-29T21:59:57.555Z,101492.78
2017-09-29T22:02:26.219Z,101496.30
2017-09-29T22:04:54.838Z,101489.55
2017-09-29T22:07:23.494Z,101492.61
2017-09-29T22:09:52.106Z,101488.39
2017-09-29T22:12:20.780Z,101477.27
2017-09-29T22:14:49.533Z,101482.08
2017-09-29T22:17:18.202Z,101482.21
2017-09-29T22:19:46.839Z,101488.69
2017-09-29T22:22:15.615Z,101480.64
2017-09-29T22:24:44.286Z,101479.07
2017-09-29T22:27:12.911Z,101479.55
2017-09-29T22:29:41.590Z,101477.56
2017-09-29T22:32:10.242Z,101478.11
2017-09-29T22:34:38.989Z,101478.02
2017-09-29T22:37:07.651Z,101479.50
2017-09-29T22:39:36.757Z,101458.00
2017-09-29T22:42:05.366Z,101466.73
2017-09-29T22:44:49.435Z,101456.99
2017-09-29T22:47:24.506Z,101454.81
2017-09-29T22:50:01.049Z,101466.14
2017-09-29T22:52:32.883Z,101461.48
2017-09-29T22:55:09.419Z,101455.47
2017-09-29T22:57:44.211Z,101451.67
2017-09-29T23:00:15.284Z,101456.02
2017-09-29T23:02:46.435Z,101445.25
2017-09-29T23:05:17.278Z,101453.11
2017-09-29T23:07:47.789Z,101455.34
2017-09-29T23:10:18.532Z,101448.17
2017-09-29T23:12:49.263Z,101451.19
2017-09-29T23:15:17.874Z,101449.62
2017-09-29T23:17:46.563Z,101443.74
2017-09-29T23:20:15.169Z,101445.36
2017-09-29T23:22:43.772Z,101439.86
2017-09-29T23:25:12.425Z,101438.30
2017-09-29T23:27:41.037Z,101432.61
2017-09-29T23:30:09.705Z,101434.00
2017-09-29T23:32:38.362Z,101421.84
2017-09-29T23:35:07.056Z,101419.86
2017-09-29T23:37:35.714Z,101415.28
2017-09-29T23:40:04.326Z,101412.56
2017-09-29T23:42:32.985Z,101409.70
2017-09-29T23:45:01.459Z,101410.63
2017-09-29T23:47:30.063Z,101414.59
2017-09-29T23:49:58.739Z,101416.07
2017-09-29T23:52:27.366Z,101417.00
2017-09-29T23:54:56.023Z,101418.80
2017-09-29T23:57:24.645Z,101414.51
2017-09-29T23:59:53.258Z,101420.45
